sensor_id;sensor_type;location;lat;lon;timestamp;pressure;altitude;pressure_sealevel;temperature;humidity
7474;BME280;3778;42.572;23.426;2022-07-22T00:00:44;71861.13;;;-146.70;53.59
7474;BME280;3778;42.572;23.426;2022-07-22T00:03:11;71873.56;;;-146.70;53.91
7474;BME280;3778;42.572;23.426;2022-07-22T00:05:38;71881.84;;;-146.70;54.31
7474;BME280;3778;42.572;23.426;2022-07-22T00:08:04;71886.00;;;-146.70;54.32
7474;BME280;3778;42.572;23.426;2022-07-22T00:10:31;71900.50;;;-146.70;55.05
7474;BME280;3778;42.572;23.426;2022-07-22T00:12:59;71904.66;;;-146.70;55.30
7474;BME280;3778;42.572;23.426;2022-07-22T00:15:26;71912.94;;;-146.70;55.58
7474;BME280;3778;42.572;23.426;2022-07-22T00:17:53;71919.16;;;-146.70;55.63
7474;BME280;3778;42.572;23.426;2022-07-22T00:20:20;71921.22;;;-146.70;55.90
7474;BME280;3778;42.572;23.426;2022-07-22T00:22:47;71931.59;;;-146.70;56.03
7474;BME280;3778;42.572;23.426;2022-07-22T00:25:14;71935.72;;;-146.70;56.25
7474;BME280;3778;42.572;23.426;2022-07-22T00:27:40;71952.31;;;-146.70;56.78
7474;BME280;3778;42.572;23.426;2022-07-22T00:30:10;71952.31;;;-146.70;56.65
7474;BME280;3778;42.572;23.426;2022-07-22T00:32:37;71952.31;;;-146.70;56.71
7474;BME280;3778;42.572;23.426;2022-07-22T00:35:05;71952.31;;;-146.70;56.75
7474;BME280;3778;42.572;23.426;2022-07-22T00:37:31;71952.31;;;-146.70;56.66
7474;BME280;3778;42.572;23.426;2022-07-22T00:39:58;71952.31;;;-146.70;57.12
7474;BME280;3778;42.572;23.426;2022-07-22T00:42:25;71968.88;;;-146.70;57.43
7474;BME280;3778;42.572;23.426;2022-07-22T00:44:52;71964.75;;;-146.70;57.41
7474;BME280;3778;42.572;23.426;2022-07-22T00:47:20;71960.59;;;-146.70;57.49
7474;BME280;3778;42.572;23.426;2022-07-22T00:49:46;71968.88;;;-146.70;57.65
7474;BME280;3778;42.572;23.426;2022-07-22T00:52:13;71958.53;;;-146.70;57.68
7474;BME280;3778;42.572;23.426;2022-07-22T00:54:40;71954.38;;;-146.70;57.57
7474;BME280;3778;42.572;23.426;2022-07-22T00:57:07;71966.81;;;-146.70;57.46
7474;BME280;3778;42.572;23.426;2022-07-22T00:59:34;71954.38;;;-146.70;57.30
7474;BME280;3778;42.572;23.426;2022-07-22T01:02:01;71960.59;;;-146.70;57.67
7474;BME280;3778;42.572;23.426;2022-07-22T01:04:29;71962.69;;;-146.70;57.95
7474;BME280;3778;42.572;23.426;2022-07-22T01:06:56;71970.97;;;-146.70;57.78
7474;BME280;3778;42.572;23.426;2022-07-22T01:09:23;71968.88;;;-146.70;58.12
7474;BME280;3778;42.572;23.426;2022-07-22T01:11:50;71968.88;;;-146.70;57.84
7474;BME280;3778;42.572;23.426;2022-07-22T01:14:17;71962.69;;;-146.70;58.06
7474;BME280;3778;42.572;23.426;2022-07-22T01:16:43;71968.88;;;-146.70;57.91
7474;BME280;3778;42.572;23.426;2022-07-22T01:19:10;71966.81;;;-146.70;57.60
7474;BME280;3778;42.572;23.426;2022-07-22T01:21:38;71970.97;;;-146.70;57.86
7474;BME280;3778;42.572;23.426;2022-07-22T01:24:05;71970.97;;;-146.70;58.12
7474;BME280;3778;42.572;23.426;2022-07-22T01:26:32;71979.25;;;-146.70;58.35
7474;BME280;3778;42.572;23.426;2022-07-22T01:28:59;71983.41;;;-146.70;58.30
7474;BME280;3778;42.572;23.426;2022-07-22T01:31:26;71981.31;;;-146.70;58.42
7474;BME280;3778;42.572;23.426;2022-07-22T01:33:54;71987.53;;;-146.70;58.52
7474;BME280;3778;42.572;23.426;2022-07-22T01:36:20;71993.75;;;-146.70;58.60
7474;BME280;3778;42.572;23.426;2022-07-22T01:38:49;72002.06;;;-146.70;58.87
7474;BME280;3778;42.572;23.426;2022-07-22T01:41:16;72010.34;;;-146.70;59.52
7474;BME280;3778;42.572;23.426;2022-07-22T01:43:42;72029.00;;;-146.70;60.34
7474;BME280;3778;42.572;23.426;2022-07-22T01:46:09;72024.84;;;-146.70;60.15
7474;BME280;3778;42.572;23.426;2022-07-22T01:48:36;72014.47;;;-146.70;59.39
7474;BME280;3778;42.572;23.426;2022-07-22T01:51:03;72008.25;;;-146.70;59.12
7474;BME280;3778;42.572;23.426;2022-07-22T01:53:30;72006.19;;;-146.70;58.89
7474;BME280;3778;42.572;23.426;2022-07-22T01:55:58;72006.19;;;-146.70;59.04
7474;BME280;3778;42.572;23.426;2022-07-22T01:58:25;72008.25;;;-146.70;58.71
7474;BME280;3778;42.572;23.426;2022-07-22T02:00:52;72004.13;;;-146.70;58.52
7474;BME280;3778;42.572;23.426;2022-07-22T02:03:19;72022.78;;;-146.70;59.24
7474;BME280;3778;42.572;23.426;2022-07-22T02:05:46;72026.91;;;-146.70;59.20
7474;BME280;3778;42.572;23.426;2022-07-22T02:08:13;72037.28;;;-146.70;59.56
7474;BME280;3778;42.572;23.426;2022-07-22T02:10:40;72039.34;;;-146.70;59.31
7474;BME280;3778;42.572;23.426;2022-07-22T02:13:08;72041.41;;;-146.70;59.08
7474;BME280;3778;42.572;23.426;2022-07-22T02:15:35;72035.19;;;-146.70;59.57
7474;BME280;3778;42.572;23.426;2022-07-22T02:18:10;72045.56;;;-146.70;59.46
7474;BME280;3778;42.572;23.426;2022-07-22T02:20:37;72041.41;;;-146.70;59.63
7474;BME280;3778;42.572;23.426;2022-07-22T02:23:04;72047.63;;;-146.70;59.63
7474;BME280;3778;42.572;23.426;2022-07-22T02:25:30;72047.63;;;-146.70;60.14
7474;BME280;3778;42.572;23.426;2022-07-22T02:27:57;72064.22;;;-146.70;60.37
7474;BME280;3778;42.572;23.426;2022-07-22T02:30:25;72058.00;;;-146.70;60.27
7474;BME280;3778;42.572;23.426;2022-07-22T02:32:52;72064.22;;;-146.70;59.87
7474;BME280;3778;42.572;23.426;2022-07-22T02:35:19;72055.94;;;-146.70;59.59
7474;BME280;3778;42.572;23.426;2022-07-22T02:37:46;72055.94;;;-146.70;59.71
7474;BME280;3778;42.572;23.426;2022-07-22T02:40:12;72060.06;;;-146.70;59.96
7474;BME280;3778;42.572;23.426;2022-07-22T02:42:39;72068.34;;;-146.70;59.85
7474;BME280;3778;42.572;23.426;2022-07-22T02:45:07;72068.34;;;-146.70;59.87
7474;BME280;3778;42.572;23.426;2022-07-22T02:47:45;72070.44;;;-146.70;59.88
7474;BME280;3778;42.572;23.426;2022-07-22T02:50:11;72072.50;;;-146.70;60.38
7474;BME280;3778;42.572;23.426;2022-07-22T02:52:38;72080.78;;;-146.70;60.34
7474;BME280;3778;42.572;23.426;2022-07-22T02:55:06;72072.50;;;-146.70;59.82
7474;BME280;3778;42.572;23.426;2022-07-22T02:57:33;72068.34;;;-146.70;59.65
7474;BME280;3778;42.572;23.426;2022-07-22T02:59:59;72074.56;;;-146.70;60.06
7474;BME280;3778;42.572;23.426;2022-07-22T03:02:26;72091.16;;;-146.70;60.98
7474;BME280;3778;42.572;23.426;2022-07-22T03:04:54;72099.44;;;-146.70;61.47
7474;BME280;3778;42.572;23.426;2022-07-22T03:07:21;72093.22;;;-146.70;61.39
7474;BME280;3778;42.572;23.426;2022-07-22T03:09:48;72097.38;;;-146.70;61.35
7474;BME280;3778;42.572;23.426;2022-07-22T03:12:15;72101.53;;;-146.70;61.52
7474;BME280;3778;42.572;23.426;2022-07-22T03:14:41;72095.31;;;-146.70;61.14
7474;BME280;3778;42.572;23.426;2022-07-22T03:17:08;72097.38;;;-146.70;60.39
7474;BME280;3778;42.572;23.426;2022-07-22T03:19:35;72099.44;;;-146.70;61.04
7474;BME280;3778;42.572;23.426;2022-07-22T03:22:03;72101.53;;;-146.70;61.35
7474;BME280;3778;42.572;23.426;2022-07-22T03:24:30;72113.94;;;-146.70;61.70
7474;BME280;3778;42.572;23.426;2022-07-22T03:26:56;72111.88;;;-146.70;61.88
7474;BME280;3778;42.572;23.426;2022-07-22T03:29:23;72118.09;;;-146.70;62.41
7474;BME280;3778;42.572;23.426;2022-07-22T03:31:50;72118.09;;;-146.70;62.49
7474;BME280;3778;42.572;23.426;2022-07-22T03:34:17;72120.16;;;-146.70;62.61
7474;BME280;3778;42.572;23.426;2022-07-22T03:36:43;72116.03;;;-146.70;61.81
7474;BME280;3778;42.572;23.426;2022-07-22T03:39:12;72118.09;;;-146.70;61.97
7474;BME280;3778;42.572;23.426;2022-07-22T03:41:38;72113.94;;;-146.70;61.84
7474;BME280;3778;42.572;23.426;2022-07-22T03:44:05;72128.47;;;-146.70;62.28
7474;BME280;3778;42.572;23.426;2022-07-22T03:46:32;72134.69;;;-146.70;62.82
7474;BME280;3778;42.572;23.426;2022-07-22T03:48:58;72140.88;;;-146.70;63.08
7474;BME280;3778;42.572;23.426;2022-07-22T03:51:25;72134.69;;;-146.70;63.01
7474;BME280;3778;42.572;23.426;2022-07-22T03:53:52;72134.69;;;-146.70;63.18
7474;BME280;3778;42.572;23.426;2022-07-22T03:56:20;72140.88;;;-146.70;63.18
7474;BME280;3778;42.572;23.426;2022-07-22T03:58:47;72134.69;;;-146.70;63.09
7474;BME280;3778;42.572;23.426;2022-07-22T04:01:14;72126.38;;;-146.70;63.14
7474;BME280;3778;42.572;23.426;2022-07-22T04:03:40;72122.25;;;-146.70;63.45
7474;BME280;3778;42.572;23.426;2022-07-22T04:06:07;72136.75;;;-146.70;63.56
7474;BME280;3778;42.572;23.426;2022-07-22T04:08:34;72118.09;;;-146.70;63.29
7474;BME280;3778;42.572;23.426;2022-07-22T04:11:01;72120.16;;;-146.70;63.06
7474;BME280;3778;42.572;23.426;2022-07-22T04:13:29;72103.59;;;-146.70;62.72
7474;BME280;3778;42.572;23.426;2022-07-22T04:15:56;72093.22;;;-146.70;62.37
7474;BME280;3778;42.572;23.426;2022-07-22T04:18:22;72080.78;;;-146.70;62.15
7474;BME280;3778;42.572;23.426;2022-07-22T04:20:49;72078.72;;;-146.70;61.97
7474;BME280;3778;42.572;23.426;2022-07-22T04:23:16;72072.50;;;-146.70;62.14
7474;BME280;3778;42.572;23.426;2022-07-22T04:25:43;72064.22;;;-146.70;61.79
7474;BME280;3778;42.572;23.426;2022-07-22T04:28:11;72060.06;;;-146.70;61.95
7474;BME280;3778;42.572;23.426;2022-07-22T04:30:39;72051.78;;;-146.70;62.22
7474;BME280;3778;42.572;23.426;2022-07-22T04:33:05;72043.50;;;-146.70;61.99
7474;BME280;3778;42.572;23.426;2022-07-22T04:35:32;72047.63;;;-146.70;62.23
7474;BME280;3778;42.572;23.426;2022-07-22T04:37:59;72037.28;;;-146.70;61.74
7474;BME280;3778;42.572;23.426;2022-07-22T04:40:26;72033.13;;;-146.70;61.63
7474;BME280;3778;42.572;23.426;2022-07-22T04:42:52;72031.06;;;-146.70;61.61
7474;BME280;3778;42.572;23.426;2022-07-22T04:45:19;72024.84;;;-146.70;61.44
7474;BME280;3778;42.572;23.426;2022-07-22T04:47:48;72022.78;;;-146.70;61.60
7474;BME280;3778;42.572;23.426;2022-07-22T04:50:14;72008.25;;;-146.70;61.48
7474;BME280;3778;42.572;23.426;2022-07-22T04:52:41;72010.34;;;-146.70;61.34
7474;BME280;3778;42.572;23.426;2022-07-22T04:55:08;71997.91;;;-146.70;61.16
7474;BME280;3778;42.572;23.426;2022-07-22T04:57:35;71987.53;;;-146.70;60.97
7474;BME280;3778;42.572;23.426;2022-07-22T05:00:03;71979.25;;;-146.70;60.91
7474;BME280;3778;42.572;23.426;2022-07-22T05:02:29;71964.75;;;-146.70;60.50
7474;BME280;3778;42.572;23.426;2022-07-22T05:04:58;71950.25;;;-146.70;60.07
7474;BME280;3778;42.572;23.426;2022-07-22T05:07:25;71935.72;;;-146.70;59.97
7474;BME280;3778;42.572;23.426;2022-07-22T05:09:51;71937.81;;;-146.70;59.79
7474;BME280;3778;42.572;23.426;2022-07-22T05:12:18;71921.22;;;-146.70;59.43
7474;BME280;3778;42.572;23.426;2022-07-22T05:14:45;71904.66;;;-146.70;59.22
7474;BME280;3778;42.572;23.426;2022-07-22T05:17:12;71890.16;;;-146.70;58.98
7474;BME280;3778;42.572;23.426;2022-07-22T05:19:39;71867.34;;;-146.70;58.92
7474;BME280;3778;42.572;23.426;2022-07-22T05:22:07;71861.13;;;-146.70;58.70
7474;BME280;3778;42.572;23.426;2022-07-22T05:24:34;71848.69;;;-146.70;57.81
7474;BME280;3778;42.572;23.426;2022-07-22T05:27:01;71838.34;;;-146.70;58.10
7474;BME280;3778;42.572;23.426;2022-07-22T05:29:28;71825.91;;;-146.70;57.69
7474;BME280;3778;42.572;23.426;2022-07-22T05:31:55;71817.63;;;-146.70;57.04
7474;BME280;3778;42.572;23.426;2022-07-22T05:34:22;71801.03;;;-146.70;57.20
7474;BME280;3778;42.572;23.426;2022-07-22T05:36:49;71794.81;;;-146.70;56.74
7474;BME280;3778;42.572;23.426;2022-07-22T05:39:17;71792.75;;;-146.70;56.56
7474;BME280;3778;42.572;23.426;2022-07-22T05:41:44;71786.53;;;-146.70;56.46
7474;BME280;3778;42.572;23.426;2022-07-22T05:44:11;71788.63;;;-146.70;56.72
7474;BME280;3778;42.572;23.426;2022-07-22T05:46:38;71778.25;;;-146.70;56.34
7474;BME280;3778;42.572;23.426;2022-07-22T05:49:04;71765.81;;;-146.70;56.24
7474;BME280;3778;42.572;23.426;2022-07-22T05:51:31;71757.53;;;-146.70;56.11
7474;BME280;3778;42.572;23.426;2022-07-22T05:53:59;71740.94;;;-146.70;55.88
7474;BME280;3778;42.572;23.426;2022-07-22T05:56:29;71726.44;;;-146.70;55.89
7474;BME280;3778;42.572;23.426;2022-07-22T05:58:55;71720.22;;;-146.70;55.53
7474;BME280;3778;42.572;23.426;2022-07-22T06:01:22;71705.72;;;-146.70;55.58
7474;BME280;3778;42.572;23.426;2022-07-22T06:03:49;71697.44;;;-146.70;54.91
7474;BME280;3778;42.572;23.426;2022-07-22T06:06:16;71687.06;;;-146.70;55.20
7474;BME280;3778;42.572;23.426;2022-07-22T06:08:43;71672.56;;;-146.70;54.83
7474;BME280;3778;42.572;23.426;2022-07-22T06:11:10;71653.91;;;-146.70;54.57
7474;BME280;3778;42.572;23.426;2022-07-22T06:13:38;71645.63;;;-146.70;54.52
7474;BME280;3778;42.572;23.426;2022-07-22T06:16:05;71629.06;;;-146.70;53.95
7474;BME280;3778;42.572;23.426;2022-07-22T06:18:32;71614.56;;;-146.70;54.05
7474;BME280;3778;42.572;23.426;2022-07-22T06:20:59;71604.19;;;-146.70;52.92
7474;BME280;3778;42.572;23.426;2022-07-22T06:23:25;71589.69;;;-146.70;53.27
7474;BME280;3778;42.572;23.426;2022-07-22T06:25:52;71568.97;;;-146.70;52.94
7474;BME280;3778;42.572;23.426;2022-07-22T06:28:19;71558.59;;;-146.70;53.85
7474;BME280;3778;42.572;23.426;2022-07-22T06:30:47;71542.03;;;-146.70;52.73
7474;BME280;3778;42.572;23.426;2022-07-22T06:33:14;71529.59;;;-146.70;49.46
7474;BME280;3778;42.572;23.426;2022-07-22T06:35:41;71517.16;;;-146.70;49.34
7474;BME280;3778;42.572;23.426;2022-07-22T06:38:07;71492.31;;;-146.70;49.90
7474;BME280;3778;42.572;23.426;2022-07-22T06:40:35;71463.28;;;-146.70;48.95
7474;BME280;3778;42.572;23.426;2022-07-22T06:43:02;71430.16;;;-146.70;47.68
7474;BME280;3778;42.572;23.426;2022-07-22T06:45:29;71419.78;;;-146.70;47.52
7474;BME280;3778;42.572;23.426;2022-07-22T06:47:57;71403.22;;;-146.70;47.24
7474;BME280;3778;42.572;23.426;2022-07-22T06:50:24;71392.84;;;-146.70;46.96
7474;BME280;3778;42.572;23.426;2022-07-22T06:52:51;71380.41;;;-146.70;45.57
7474;BME280;3778;42.572;23.426;2022-07-22T06:55:18;71359.69;;;-146.70;46.06
7474;BME280;3778;42.572;23.426;2022-07-22T06:57:45;71349.34;;;-146.70;46.60
7474;BME280;3778;42.572;23.426;2022-07-22T07:00:12;71334.84;;;-146.70;46.03
7474;BME280;3778;42.572;23.426;2022-07-22T07:02:39;71320.34;;;-146.70;46.06
7474;BME280;3778;42.572;23.426;2022-07-22T07:05:08;71295.47;;;-146.70;44.05
7474;BME280;3778;42.572;23.426;2022-07-22T07:07:35;71280.97;;;-146.70;43.61
7474;BME280;3778;42.572;23.426;2022-07-22T07:10:02;71270.59;;;-146.70;42.75
7474;BME280;3778;42.572;23.426;2022-07-22T07:12:29;71260.25;;;-146.70;42.86
7474;BME280;3778;42.572;23.426;2022-07-22T07:14:56;71264.38;;;-146.70;42.21
7474;BME280;3778;42.572;23.426;2022-07-22T07:17:28;71247.81;;;-146.70;43.21
7474;BME280;3778;42.572;23.426;2022-07-22T07:19:55;71239.53;;;-146.70;42.79
7474;BME280;3778;42.572;23.426;2022-07-22T07:22:23;71239.53;;;-146.70;42.57
7474;BME280;3778;42.572;23.426;2022-07-22T07:24:50;71231.25;;;-146.70;41.71
7474;BME280;3778;42.572;23.426;2022-07-22T07:27:17;71216.75;;;-146.70;42.50
7474;BME280;3778;42.572;23.426;2022-07-22T07:29:43;71210.53;;;-146.70;41.51
7474;BME280;3778;42.572;23.426;2022-07-22T07:32:11;71206.38;;;-146.70;41.34
7474;BME280;3778;42.572;23.426;2022-07-22T07:34:38;71196.03;;;-146.70;41.36
7474;BME280;3778;42.572;23.426;2022-07-22T07:37:05;71193.94;;;-146.70;41.60
7474;BME280;3778;42.572;23.426;2022-07-22T07:39:33;71181.50;;;-146.70;41.01
7474;BME280;3778;42.572;23.426;2022-07-22T07:42:00;71167.00;;;-146.70;43.28
7474;BME280;3778;42.572;23.426;2022-07-22T07:44:27;71162.88;;;-146.70;42.88
7474;BME280;3778;42.572;23.426;2022-07-22T07:46:53;71148.38;;;-146.70;41.13
7474;BME280;3778;42.572;23.426;2022-07-22T07:49:20;71133.88;;;-146.70;41.65
7474;BME280;3778;42.572;23.426;2022-07-22T07:51:47;71125.56;;;-146.70;41.00
7474;BME280;3778;42.572;23.426;2022-07-22T07:54:14;71133.88;;;-146.70;40.17
7474;BME280;3778;42.572;23.426;2022-07-22T07:56:42;71115.22;;;-146.70;41.11
7474;BME280;3778;42.572;23.426;2022-07-22T07:59:08;71109.00;;;-146.70;40.35
7474;BME280;3778;42.572;23.426;2022-07-22T08:01:35;71106.94;;;-146.70;39.70
7474;BME280;3778;42.572;23.426;2022-07-22T08:04:02;71094.50;;;-146.70;39.36
7474;BME280;3778;42.572;23.426;2022-07-22T08:06:29;71084.13;;;-146.70;39.75
7474;BME280;3778;42.572;23.426;2022-07-22T08:08:56;71069.63;;;-146.70;39.27
7474;BME280;3778;42.572;23.426;2022-07-22T08:11:22;71071.72;;;-146.70;38.88
7474;BME280;3778;42.572;23.426;2022-07-22T08:13:50;71055.13;;;-146.70;38.87
7474;BME280;3778;42.572;23.426;2022-07-22T08:16:17;71038.56;;;-146.70;38.60
7474;BME280;3778;42.572;23.426;2022-07-22T08:18:44;71030.28;;;-146.70;38.90
7474;BME280;3778;42.572;23.426;2022-07-22T08:21:11;71011.63;;;-146.70;38.72
7474;BME280;3778;42.572;23.426;2022-07-22T08:23:38;71001.28;;;-146.70;37.62
7474;BME280;3778;42.572;23.426;2022-07-22T08:26:04;71017.84;;;-146.70;38.05
7474;BME280;3778;42.572;23.426;2022-07-22T08:28:31;71026.13;;;-146.70;39.49
7474;BME280;3778;42.572;23.426;2022-07-22T08:31:00;71015.78;;;-146.70;38.50
7474;BME280;3778;42.572;23.426;2022-07-22T08:33:26;70988.84;;;-146.70;36.95
7474;BME280;3778;42.572;23.426;2022-07-22T08:35:53;70968.13;;;-146.70;37.39
7474;BME280;3778;42.572;23.426;2022-07-22T08:38:20;70957.75;;;-146.70;35.56
7474;BME280;3778;42.572;23.426;2022-07-22T08:40:48;70955.69;;;-146.70;36.60
7474;BME280;3778;42.572;23.426;2022-07-22T08:43:15;70953.63;;;-146.70;34.48
7474;BME280;3778;42.572;23.426;2022-07-22T08:45:42;70947.41;;;-146.70;34.65
7474;BME280;3778;42.572;23.426;2022-07-22T08:48:10;70932.91;;;-146.70;36.28
7474;BME280;3778;42.572;23.426;2022-07-22T08:50:39;70920.47;;;-146.70;34.97
7474;BME280;3778;42.572;23.426;2022-07-22T08:53:08;70928.75;;;-146.70;34.49
7474;BME280;3778;42.572;23.426;2022-07-22T08:55:41;70914.25;;;-146.70;35.32
7474;BME280;3778;42.572;23.426;2022-07-22T08:58:08;70908.03;;;-146.70;34.58
7474;BME280;3778;42.572;23.426;2022-07-22T09:00:35;70901.81;;;-146.70;34.36
7474;BME280;3778;42.572;23.426;2022-07-22T09:03:17;70885.25;;;-146.70;35.89
7474;BME280;3778;42.572;23.426;2022-07-22T09:05:46;70887.31;;;-146.70;35.59
7474;BME280;3778;42.572;23.426;2022-07-22T09:08:13;70866.59;;;-146.70;34.71
7474;BME280;3778;42.572;23.426;2022-07-22T09:10:41;70868.69;;;-146.70;33.69
7474;BME280;3778;42.572;23.426;2022-07-22T09:13:09;70858.31;;;-146.70;35.13
7474;BME280;3778;42.572;23.426;2022-07-22T09:15:38;70870.75;;;-146.70;34.49
7474;BME280;3778;42.572;23.426;2022-07-22T09:18:07;70856.25;;;-146.70;34.22
7474;BME280;3778;42.572;23.426;2022-07-22T09:20:37;70837.59;;;-146.70;33.61
7474;BME280;3778;42.572;23.426;2022-07-22T09:23:10;70841.75;;;-146.70;34.92
7474;BME280;3778;42.572;23.426;2022-07-22T09:25:38;70841.75;;;-146.70;33.24
7474;BME280;3778;42.572;23.426;2022-07-22T09:28:14;70843.81;;;-146.70;34.84
7474;BME280;3778;42.572;23.426;2022-07-22T09:30:46;70816.88;;;-146.70;33.59
7474;BME280;3778;42.572;23.426;2022-07-22T09:33:14;70818.97;;;-146.70;33.46
7474;BME280;3778;42.572;23.426;2022-07-22T09:35:43;70818.97;;;-146.70;34.45
7474;BME280;3778;42.572;23.426;2022-07-22T09:38:11;70792.03;;;-146.70;33.58
7474;BME280;3778;42.572;23.426;2022-07-22T09:40:40;70777.53;;;-146.70;32.92
7474;BME280;3778;42.572;23.426;2022-07-22T09:43:10;70767.16;;;-146.70;32.97
7474;BME280;3778;42.572;23.426;2022-07-22T09:45:44;70796.16;;;-146.70;33.18
7474;BME280;3778;42.572;23.426;2022-07-22T09:48:12;70831.38;;;-146.70;33.54
7474;BME280;3778;42.572;23.426;2022-07-22T09:50:39;70798.25;;;-146.70;35.26
7474;BME280;3778;42.572;23.426;2022-07-22T09:53:08;70787.88;;;-146.70;32.49
7474;BME280;3778;42.572;23.426;2022-07-22T09:55:35;70765.09;;;-146.70;34.30
7474;BME280;3778;42.572;23.426;2022-07-22T09:58:05;70775.47;;;-146.70;33.25
7474;BME280;3778;42.572;23.426;2022-07-22T10:00:34;70760.94;;;-146.70;32.18
7474;BME280;3778;42.572;23.426;2022-07-22T10:03:03;70742.31;;;-146.70;32.09
7474;BME280;3778;42.572;23.426;2022-07-22T10:05:31;70715.38;;;-146.70;31.90
7474;BME280;3778;42.572;23.426;2022-07-22T10:08:00;70700.88;;;-146.70;32.26
7474;BME280;3778;42.572;23.426;2022-07-22T10:10:29;70713.31;;;-146.70;32.24
7474;BME280;3778;42.572;23.426;2022-07-22T10:12:58;70705.03;;;-146.70;32.14
7474;BME280;3778;42.572;23.426;2022-07-22T10:15:26;70694.66;;;-146.70;31.42
7474;BME280;3778;42.572;23.426;2022-07-22T10:17:57;70698.81;;;-146.70;31.48
7474;BME280;3778;42.572;23.426;2022-07-22T10:20:25;70690.53;;;-146.70;31.70
7474;BME280;3778;42.572;23.426;2022-07-22T10:22:56;70688.44;;;-146.70;31.43
7474;BME280;3778;42.572;23.426;2022-07-22T10:25:25;70684.31;;;-146.70;31.42
7474;BME280;3778;42.572;23.426;2022-07-22T10:27:56;70680.16;;;-146.70;34.16
7474;BME280;3778;42.572;23.426;2022-07-22T10:30:24;70655.31;;;-146.70;32.73
7474;BME280;3778;42.572;23.426;2022-07-22T10:33:05;70657.38;;;-146.70;32.65
7474;BME280;3778;42.572;23.426;2022-07-22T10:35:33;70661.50;;;-146.70;31.62
7474;BME280;3778;42.572;23.426;2022-07-22T10:38:05;70647.00;;;-146.70;32.26
7474;BME280;3778;42.572;23.426;2022-07-22T10:40:46;70634.59;;;-146.70;31.32
7474;BME280;3778;42.572;23.426;2022-07-22T10:43:16;70615.94;;;-146.70;32.41
7474;BME280;3778;42.572;23.426;2022-07-22T10:45:46;70601.44;;;-146.70;32.38
7474;BME280;3778;42.572;23.426;2022-07-22T10:48:16;70597.31;;;-146.70;31.11
7474;BME280;3778;42.572;23.426;2022-07-22T10:51:05;70605.59;;;-146.70;31.61
7474;BME280;3778;42.572;23.426;2022-07-22T10:53:44;70618.00;;;-146.70;30.81
7474;BME280;3778;42.572;23.426;2022-07-22T10:56:19;70609.72;;;-146.70;30.67
7474;BME280;3778;42.572;23.426;2022-07-22T10:58:51;70601.44;;;-146.70;32.90
7474;BME280;3778;42.572;23.426;2022-07-22T11:01:21;70622.16;;;-146.70;31.32
7474;BME280;3778;42.572;23.426;2022-07-22T11:03:48;70644.94;;;-146.70;32.14
7474;BME280;3778;42.572;23.426;2022-07-22T11:06:19;70647.00;;;-146.70;32.50
7474;BME280;3778;42.572;23.426;2022-07-22T11:08:50;70642.88;;;-146.70;32.11
7474;BME280;3778;42.572;23.426;2022-07-22T11:11:17;70620.09;;;-146.70;31.82
7474;BME280;3778;42.572;23.426;2022-07-22T11:13:45;70593.16;;;-146.70;31.85
7474;BME280;3778;42.572;23.426;2022-07-22T11:16:20;70566.22;;;-146.70;32.71
7474;BME280;3778;42.572;23.426;2022-07-22T11:18:51;70531.00;;;-146.70;33.39
7474;BME280;3778;42.572;23.426;2022-07-22T11:21:21;70510.28;;;-146.70;30.72
7474;BME280;3778;42.572;23.426;2022-07-22T11:23:49;70533.09;;;-146.70;30.03
7474;BME280;3778;42.572;23.426;2022-07-22T11:26:18;70512.38;;;-146.70;30.94
7474;BME280;3778;42.572;23.426;2022-07-22T11:28:46;70531.00;;;-146.70;30.83
7474;BME280;3778;42.572;23.426;2022-07-22T11:31:17;70535.16;;;-146.70;31.14
7474;BME280;3778;42.572;23.426;2022-07-22T11:33:46;70506.16;;;-146.70;30.97
7474;BME280;3778;42.572;23.426;2022-07-22T11:36:13;70512.38;;;-146.70;31.26
7474;BME280;3778;42.572;23.426;2022-07-22T11:38:45;70491.66;;;-146.70;30.94
7474;BME280;3778;42.572;23.426;2022-07-22T11:41:12;70510.28;;;-146.70;30.99
7474;BME280;3778;42.572;23.426;2022-07-22T11:43:41;70502.00;;;-146.70;30.25
7474;BME280;3778;42.572;23.426;2022-07-22T11:46:07;70485.44;;;-146.70;30.97
7474;BME280;3778;42.572;23.426;2022-07-22T11:48:34;70489.56;;;-146.70;30.16
7474;BME280;3778;42.572;23.426;2022-07-22T11:51:05;70475.06;;;-146.70;30.01
7474;BME280;3778;42.572;23.426;2022-07-22T11:53:32;70446.09;;;-146.70;30.48
7474;BME280;3778;42.572;23.426;2022-07-22T11:56:00;70439.88;;;-146.70;30.26
7474;BME280;3778;42.572;23.426;2022-07-22T11:58:49;70452.28;;;-146.70;30.70
7474;BME280;3778;42.572;23.426;2022-07-22T12:01:19;70448.16;;;-146.70;30.71
7474;BME280;3778;42.572;23.426;2022-07-22T12:03:47;70452.28;;;-146.70;30.11
7474;BME280;3778;42.572;23.426;2022-07-22T12:06:17;70458.50;;;-146.70;30.03
7474;BME280;3778;42.572;23.426;2022-07-22T12:08:46;70448.16;;;-146.70;29.37
7474;BME280;3778;42.572;23.426;2022-07-22T12:11:16;70466.78;;;-146.70;31.66
7474;BME280;3778;42.572;23.426;2022-07-22T12:13:44;70473.00;;;-146.70;30.11
7474;BME280;3778;42.572;23.426;2022-07-22T12:16:20;70446.09;;;-146.70;29.79
7474;BME280;3778;42.572;23.426;2022-07-22T12:18:51;70427.44;;;-146.70;31.21
7474;BME280;3778;42.572;23.426;2022-07-22T12:21:20;70410.88;;;-146.70;29.86
7474;BME280;3778;42.572;23.426;2022-07-22T12:23:52;70365.28;;;-146.70;30.49
7474;BME280;3778;42.572;23.426;2022-07-22T12:26:19;70334.22;;;-146.70;29.40
7474;BME280;3778;42.572;23.426;2022-07-22T12:28:46;70377.72;;;-146.70;27.27
7474;BME280;3778;42.572;23.426;2022-07-22T12:31:12;70406.72;;;-146.70;29.08
7474;BME280;3778;42.572;23.426;2022-07-22T12:33:47;70373.59;;;-146.70;29.44
7474;BME280;3778;42.572;23.426;2022-07-22T12:36:14;70352.88;;;-146.70;29.10
7474;BME280;3778;42.572;23.426;2022-07-22T12:38:42;70332.16;;;-146.70;28.63
7474;BME280;3778;42.572;23.426;2022-07-22T12:41:23;70317.66;;;-146.70;27.65
7474;BME280;3778;42.572;23.426;2022-07-22T12:43:51;70305.22;;;-146.70;27.97
7474;BME280;3778;42.572;23.426;2022-07-22T12:46:18;70278.28;;;-146.70;29.14
7474;BME280;3778;42.572;23.426;2022-07-22T12:48:50;70257.59;;;-146.70;27.84
7474;BME280;3778;42.572;23.426;2022-07-22T12:51:16;70255.50;;;-146.70;27.19
7474;BME280;3778;42.572;23.426;2022-07-22T12:53:45;70270.00;;;-146.70;26.49